Time;durP1;ratioP1;P1;durP2;ratioP2;P2;SDS_P1;SDS_P2;PMS_P1;PMS_P2;Temp;Humidity;BMP_temperature;BMP_pressure;BME280_temperature;BME280_humidity;BME280_pressure;Samples;Min_cycle;Max_cycle;Signal;HPM_P1;HPM_P2
2022/03/14 00:00:00;;;;;;;;;;;6.80;99.90;7.20;100224.00;;;;346834;28;91156;-92
2022/03/14 00:00:16;;;;;;;;;;;6.80;99.90;7.20;100215.00;;;;348502;27;96052;-92
2022/03/14 00:00:28;;;;;;;;;;;6.80;99.90;7.20;100216.00;;;;345535;28;91266;-92
2022/03/14 00:00:40;;;;;;;;;;;6.80;99.90;7.20;100224.00;;;;347280;28;93862;-92
2022/03/14 00:00:52;;;;;;;;;;;6.80;99.90;7.30;100226.00;;;;346854;28;92217;-92
2022/03/14 00:01:05;;;;;;;;;;;6.80;99.90;7.20;100222.00;;;;347315;28;93474;-92
2022/03/14 00:01:18;;;;;;;;;;;6.80;99.90;7.20;100221.00;;;;348332;27;91960;-92
2022/03/14 00:01:30;;;;;;;;;;;6.80;99.90;7.20;100220.00;;;;345725;28;96020;-92
2022/03/14 00:01:42;;;;;;;;;;;6.80;99.90;7.20;100222.00;;;;346775;27;91911;-91
2022/03/14 00:01:54;;;;;;;;;;;6.80;99.90;7.30;100229.00;;;;346794;28;93878;-92
2022/03/14 00:02:06;;;;;;;;;;;6.80;99.90;7.30;100229.00;;;;346911;28;92063;-92
2022/03/14 00:02:18;;;;;;;;;;;6.80;99.90;7.20;100227.00;;;;345738;28;94568;-93
2022/03/14 00:02:30;;;;;;;;;;;6.80;99.90;7.30;100219.00;;;;348479;27;91182;-92
2022/03/14 00:02:42;;;;;;;;;;;6.80;99.90;7.30;100227.00;;;;345855;28;91607;-91
2022/03/14 00:02:54;;;;;;;;;;;6.80;99.90;7.30;100232.00;;;;346965;28;92114;-91
2022/03/14 00:03:06;;;;;;;;;;;6.80;99.90;7.30;100229.00;;;;347196;28;94660;-92
2022/03/14 00:03:20;;;;;;;;;;;6.80;99.90;7.30;100224.00;;;;346705;28;92135;-93
2022/03/14 00:03:42;;;;;;;;;;;6.80;99.90;7.30;100224.00;;;;345680;28;96335;-92
2022/03/14 00:03:55;;;;;;;;;;;6.80;99.90;7.30;100222.00;;;;345323;28;91199;-91
2022/03/14 00:04:08;;;;;;;;;;;6.80;99.90;7.40;100227.00;;;;347171;28;94372;-92
2022/03/14 00:04:20;;;;;;;;;;;6.80;99.90;7.40;100228.00;;;;346648;28;92195;-92
2022/03/14 00:04:37;;;;;;;;;;;6.80;99.90;7.40;100211.00;;;;346965;28;95212;-91
2022/03/14 00:04:51;;;;;;;;;;;6.80;99.90;7.40;100228.00;;;;346279;28;90585;-92
2022/03/14 00:05:06;;;;;;;;;;;6.80;99.90;7.30;100226.00;;;;345753;28;93778;-92
2022/03/14 00:05:18;;;;;;;;;;;6.80;99.90;7.30;100225.00;;;;346892;28;92119;-92
2022/03/14 00:05:31;;;;;;;;;;;6.80;99.90;7.40;100233.00;;;;347211;28;95957;-91
2022/03/14 00:05:43;;;;;;;;;;;6.80;99.90;7.30;100223.00;;;;348098;27;92102;-92
2022/03/14 00:05:55;;;;;;;;;;;6.80;99.90;7.30;100227.00;;;;347020;28;95600;-92
2022/03/14 00:06:10;;;;;;;;;;;6.80;99.90;7.30;100219.00;;;;345002;28;92190;-91
2022/03/14 00:06:23;;;;;;;;;;;6.80;99.90;7.30;100225.00;;;;347197;28;95796;-92
2022/03/14 00:06:35;;;;;;;;;;;6.80;99.90;7.20;100224.00;;;;348037;27;92047;-93
2022/03/14 00:06:48;;;;;;;;;;;6.80;99.90;7.20;100228.00;;;;347100;28;95699;-92
2022/03/14 00:07:00;;;;;;;;;;;6.80;99.90;7.20;100227.00;;;;348478;27;91088;-91
2022/03/14 00:07:12;;;;;;;;;;;6.80;99.90;7.20;100229.00;;;;345704;28;95014;-92
2022/03/14 00:07:23;;;;;;;;;;;6.80;99.90;7.20;100229.00;;;;344255;28;91953;-92
2022/03/14 00:07:38;;;;;;;;;;;6.80;99.90;7.20;100219.00;;;;347253;28;95942;-91
2022/03/14 00:07:49;;;;;;;;;;;6.80;99.90;7.20;100222.00;;;;345422;28;91205;-92
2022/03/14 00:08:01;;;;;;;;;;;6.80;99.90;7.20;100224.00;;;;346617;28;94318;-92
2022/03/14 00:08:15;;;;;;;;;;;6.80;99.90;7.20;100221.00;;;;346429;28;91172;-91
2022/03/14 00:08:55;;;;;;;;;;;6.80;99.90;7.30;100217.00;;;;346293;28;91354;-91
2022/03/14 00:09:12;;;;;;;;;;;6.80;99.90;7.20;100225.00;;;;348081;28;91158;-91
2022/03/14 00:09:27;;;;;;;;;;;6.80;99.90;7.20;100227.00;;;;348056;28;95187;-91
2022/03/14 00:09:52;;;;;;;;;;;6.80;99.90;7.10;100228.00;;;;345478;28;91263;-92
2022/03/14 00:10:05;;;;;;;;;;;6.70;99.90;7.20;100222.00;;;;346323;28;95054;-91
2022/03/14 00:10:18;;;;;;;;;;;6.70;99.90;7.10;100229.00;;;;345849;28;92172;-92
2022/03/14 00:10:37;;;;;;;;;;;6.70;99.90;7.10;100229.00;;;;345859;28;94699;-91
2022/03/14 00:10:51;;;;;;;;;;;6.70;99.90;7.20;100226.00;;;;346382;28;92247;-91
2022/03/14 00:11:02;;;;;;;;;;;6.70;99.90;7.20;100222.00;;;;346445;28;94934;-92
2022/03/14 00:11:15;;;;;;;;;;;6.70;99.90;7.20;100226.00;;;;347574;27;91987;-92
2022/03/14 00:11:28;;;;;;;;;;;6.70;99.90;7.20;100230.00;;;;347220;28;95893;-92
2022/03/14 00:11:40;;;;;;;;;;;6.70;99.90;7.20;100225.00;;;;346933;27;92145;-92
2022/03/14 00:11:52;;;;;;;;;;;6.70;99.90;7.20;100233.00;;;;349902;27;95783;-92
2022/03/14 00:12:07;;;;;;;;;;;6.70;99.90;7.20;100234.00;;;;345572;28;90488;-92
2022/03/14 00:12:23;;;;;;;;;;;6.70;99.90;7.20;100234.00;;;;344473;28;92674;-91
2022/03/14 00:12:36;;;;;;;;;;;6.70;99.90;7.20;100238.00;;;;346939;28;91864;-92
2022/03/14 00:12:58;;;;;;;;;;;6.70;99.90;7.20;100238.00;;;;347023;28;94631;-92
2022/03/14 00:13:10;;;;;;;;;;;6.70;99.90;7.10;100240.00;;;;345595;28;92021;-92
2022/03/14 00:13:22;;;;;;;;;;;6.70;99.90;7.20;100231.00;;;;345883;28;94652;-92
2022/03/14 00:13:34;;;;;;;;;;;6.70;99.90;7.20;100228.00;;;;345570;28;91956;-92
2022/03/14 00:13:46;;;;;;;;;;;6.70;99.90;7.10;100229.00;;;;346430;28;95620;-91
2022/03/14 00:14:01;;;;;;;;;;;6.70;99.90;7.20;100231.00;;;;346052;28;91163;-92
2022/03/14 00:14:13;;;;;;;;;;;6.70;99.90;7.10;100235.00;;;;346956;27;92544;-92
2022/03/14 00:14:29;;;;;;;;;;;6.70;99.90;7.20;100237.00;;;;346744;28;91336;-92
2022/03/14 00:14:40;;;;;;;;;;;6.70;99.90;7.10;100233.00;;;;345916;28;93846;-92
2022/03/14 00:14:54;;;;;;;;;;;6.70;99.90;7.10;100236.00;;;;345459;28;92031;-92
2022/03/14 00:15:08;;;;;;;;;;;6.70;99.90;7.10;100233.00;;;;344520;28;94387;-91
2022/03/14 00:15:20;;;;;;;;;;;6.70;99.90;7.10;100227.00;;;;345343;28;92222;-92
2022/03/14 00:15:32;;;;;;;;;;;6.70;99.90;7.10;100234.00;;;;345734;28;95694;-92
2022/03/14 00:15:44;;;;;;;;;;;6.70;99.90;7.10;100239.00;;;;347029;28;91237;-92
2022/03/14 00:15:57;;;;;;;;;;;6.70;99.90;7.10;100231.00;;;;347132;27;94612;-92
2022/03/14 00:16:10;;;;;;;;;;;6.60;99.90;7.00;100228.00;;;;345347;28;92097;-91
2022/03/14 00:16:23;;;;;;;;;;;6.70;99.90;7.10;100229.00;;;;347193;28;95073;-92
2022/03/14 00:16:45;;;;;;;;;;;6.70;99.90;7.10;100228.00;;;;347015;28;90455;-92
2022/03/14 00:16:57;;;;;;;;;;;6.70;99.90;7.20;100234.00;;;;346136;28;94920;-92
2022/03/14 00:17:11;;;;;;;;;;;6.70;99.90;7.20;100233.00;;;;348386;27;91113;-92
2022/03/14 00:17:26;;;;;;;;;;;6.70;99.90;7.20;100237.00;;;;347103;28;95497;-92
2022/03/14 00:17:45;;;;;;;;;;;6.70;99.90;7.10;100236.00;;;;348426;27;91058;-92
2022/03/14 00:18:00;;;;;;;;;;;6.70;99.90;7.10;100228.00;;;;345723;28;95890;-92
2022/03/14 00:18:13;;;;;;;;;;;6.70;99.90;7.10;100237.00;;;;345428;28;92094;-92
2022/03/14 00:18:29;;;;;;;;;;;6.70;99.90;7.10;100230.00;;;;345638;28;96125;-92
2022/03/14 00:18:43;;;;;;;;;;;6.70;99.90;7.10;100235.00;;;;344092;28;92170;-92
2022/03/14 00:18:55;;;;;;;;;;;6.70;99.90;7.10;100230.00;;;;347107;28;94900;-92
2022/03/14 00:19:07;;;;;;;;;;;6.70;99.90;7.10;100232.00;;;;345626;28;91377;-91
2022/03/14 00:19:20;;;;;;;;;;;6.70;99.90;7.10;100228.00;;;;345829;28;93743;-91
2022/03/14 00:19:32;;;;;;;;;;;6.70;99.90;7.20;100232.00;;;;345510;28;91334;-92
2022/03/14 00:19:45;;;;;;;;;;;6.70;99.90;7.30;100230.00;;;;344989;28;94752;-92
2022/03/14 00:19:57;;;;;;;;;;;6.70;99.90;7.20;100238.00;;;;347040;27;91279;-92
2022/03/14 00:20:12;;;;;;;;;;;6.70;99.90;7.30;100235.00;;;;347030;28;94568;-92
2022/03/14 00:20:24;;;;;;;;;;;6.70;99.90;7.30;100230.00;;;;346819;28;92135;-92
2022/03/14 00:20:36;;;;;;;;;;;6.70;99.90;7.20;100230.00;;;;346938;28;95517;-92
2022/03/14 00:20:48;;;;;;;;;;;6.70;99.90;7.30;100235.00;;;;346916;28;92055;-92
2022/03/14 00:21:00;;;;;;;;;;;6.70;99.90;7.30;100229.00;;;;348564;27;96120;-92
2022/03/14 00:21:13;;;;;;;;;;;6.70;99.90;7.30;100235.00;;;;348364;27;90414;-92
2022/03/14 00:21:25;;;;;;;;;;;6.70;99.90;7.30;100227.00;;;;347159;28;94192;-92
2022/03/14 00:21:39;;;;;;;;;;;6.70;99.90;7.30;100221.00;;;;345542;28;91995;-92
2022/03/14 00:21:50;;;;;;;;;;;6.70;99.90;7.30;100225.00;;;;345802;28;94605;-92
2022/03/14 00:22:03;;;;;;;;;;;6.80;99.90;7.30;100224.00;;;;345582;28;91990;-92
2022/03/14 00:22:19;;;;;;;;;;;6.70;99.90;7.20;100230.00;;;;344319;28;95783;-92
2022/03/14 00:22:31;;;;;;;;;;;6.70;99.90;7.20;100223.00;;;;344211;28;91955;-92
2022/03/14 00:22:44;;;;;;;;;;;6.70;99.90;7.30;100224.00;;;;345998;28;95793;-92
2022/03/14 00:22:58;;;;;;;;;;;6.70;99.90;7.30;100224.00;;;;345302;28;91197;-92
2022/03/14 00:23:11;;;;;;;;;;;6.70;99.90;7.20;100223.00;;;;347077;28;95809;-92
2022/03/14 00:23:25;;;;;;;;;;;6.70;99.90;7.30;100228.00;;;;345591;28;91218;-92
2022/03/14 00:23:38;;;;;;;;;;;6.80;99.90;7.30;100215.00;;;;345706;28;95052;-92
2022/03/14 00:23:54;;;;;;;;;;;6.80;99.90;7.30;100225.00;;;;345803;28;92068;-92
2022/03/14 00:24:07;;;;;;;;;;;6.80;99.90;7.40;100225.00;;;;344357;28;95784;-92
2022/03/14 00:24:18;;;;;;;;;;;6.80;99.90;7.40;100222.00;;;;345342;28;92028;-92
2022/03/14 00:24:30;;;;;;;;;;;6.80;99.90;7.40;100220.00;;;;347201;28;96219;-92
2022/03/14 00:24:42;;;;;;;;;;;6.80;99.90;7.30;100225.00;;;;348499;27;91843;-92
2022/03/14 00:24:54;;;;;;;;;;;6.80;99.90;7.30;100221.00;;;;347210;28;94766;-92
2022/03/14 00:25:07;;;;;;;;;;;6.80;99.90;7.20;100221.00;;;;346987;28;91218;-92
2022/03/14 00:25:19;;;;;;;;;;;6.80;99.90;7.30;100222.00;;;;345733;28;95733;-92
2022/03/14 00:25:30;;;;;;;;;;;6.80;99.90;7.30;100229.00;;;;347056;27;91200;-92
2022/03/14 00:25:42;;;;;;;;;;;6.80;99.90;7.30;100227.00;;;;347233;27;94735;-92
2022/03/14 00:25:54;;;;;;;;;;;6.80;99.90;7.40;100228.00;;;;346809;28;91296;-92
2022/03/14 00:26:07;;;;;;;;;;;6.80;99.90;7.40;100223.00;;;;347131;28;94546;-92
2022/03/14 00:26:20;;;;;;;;;;;6.80;99.90;7.40;100223.00;;;;346669;28;92126;-92
2022/03/14 00:26:32;;;;;;;;;;;6.80;99.90;7.30;100227.00;;;;345766;28;94578;-92
2022/03/14 00:26:44;;;;;;;;;;;6.80;99.90;7.40;100231.00;;;;346039;28;91172;-92
2022/03/14 00:26:56;;;;;;;;;;;6.80;99.90;7.40;100221.00;;;;345485;28;94885;-92
2022/03/14 00:27:08;;;;;;;;;;;6.80;99.90;7.40;100218.00;;;;348148;27;91180;-92
2022/03/14 00:27:20;;;;;;;;;;;6.80;99.90;7.40;100223.00;;;;344442;28;94687;-92
2022/03/14 00:27:32;;;;;;;;;;;6.80;99.90;7.40;100218.00;;;;344138;28;90464;-92
2022/03/14 00:27:44;;;;;;;;;;;6.80;99.90;7.30;100218.00;;;;347212;28;95166;-92
2022/03/14 00:27:56;;;;;;;;;;;6.90;99.90;7.40;100225.00;;;;344199;28;91949;-92
2022/03/14 00:28:07;;;;;;;;;;;6.80;99.90;7.30;100225.00;;;;345743;28;95442;-92
2022/03/14 00:28:20;;;;;;;;;;;6.90;99.90;7.30;100220.00;;;;345528;28;91165;-92
2022/03/14 00:28:31;;;;;;;;;;;6.80;99.90;7.30;100224.00;;;;347201;28;96061;-92
2022/03/14 00:28:43;;;;;;;;;;;6.80;99.90;7.30;100218.00;;;;346679;28;91902;-91
2022/03/14 00:28:55;;;;;;;;;;;6.80;99.90;7.30;100216.00;;;;345511;28;96264;-92
2022/03/14 00:29:07;;;;;;;;;;;6.90;99.90;7.40;100215.00;;;;345564;28;91126;-92
2022/03/14 00:29:20;;;;;;;;;;;6.80;99.90;7.30;100216.00;;;;347083;28;95701;-92
2022/03/14 00:29:32;;;;;;;;;;;6.80;99.90;7.30;100217.00;;;;345551;28;90451;-92
2022/03/14 00:29:43;;;;;;;;;;;6.80;99.90;7.30;100212.00;;;;344443;28;94199;-92
2022/03/14 00:29:55;;;;;;;;;;;6.80;99.90;7.30;100214.00;;;;346934;28;91982;-92
2022/03/14 00:30:12;;;;;;;;;;;6.80;99.90;7.30;100220.00;;;;344131;28;94725;-92
2022/03/14 00:30:25;;;;;;;;;;;6.80;99.90;7.30;100230.00;;;;346918;28;92498;-92
2022/03/14 00:30:37;;;;;;;;;;;6.80;99.90;7.20;100217.00;;;;345725;28;95477;-92
2022/03/14 00:30:48;;;;;;;;;;;6.80;99.90;7.20;100217.00;;;;345480;28;92040;-92
2022/03/14 00:31:00;;;;;;;;;;;6.80;99.90;7.30;100220.00;;;;345905;28;92354;-92
2022/03/14 00:31:12;;;;;;;;;;;6.80;99.90;7.30;100210.00;;;;348268;27;92072;-92
2022/03/14 00:31:24;;;;;;;;;;;6.80;99.90;7.30;100218.00;;;;347104;28;95958;-92
2022/03/14 00:31:36;;;;;;;;;;;6.80;99.90;7.20;100217.00;;;;348360;27;91278;-92
2022/03/14 00:31:48;;;;;;;;;;;6.80;99.90;7.20;100222.00;;;;347123;28;93607;-92
2022/03/14 00:32:00;;;;;;;;;;;6.80;99.90;7.20;100217.00;;;;346779;28;92074;-92
2022/03/14 00:32:12;;;;;;;;;;;6.80;99.90;7.20;100227.00;;;;346651;28;95870;-92
2022/03/14 00:32:24;;;;;;;;;;;6.80;99.90;7.30;100227.00;;;;346870;28;92073;-93
2022/03/14 00:32:36;;;;;;;;;;;6.80;99.90;7.30;100222.00;;;;344180;28;95609;-92
2022/03/14 00:32:48;;;;;;;;;;;6.80;99.90;7.20;100216.00;;;;348929;27;91312;-92
2022/03/14 00:33:00;;;;;;;;;;;6.80;99.90;7.30;100220.00;;;;345816;28;95859;-93
2022/03/14 00:33:12;;;;;;;;;;;6.80;99.90;7.20;100222.00;;;;346853;28;91274;-92
2022/03/14 00:33:23;;;;;;;;;;;6.80;99.90;7.30;100224.00;;;;345861;28;94757;-92
2022/03/14 00:33:36;;;;;;;;;;;6.70;99.90;7.20;100220.00;;;;345613;28;90428;-92
2022/03/14 00:33:48;;;;;;;;;;;6.80;99.90;7.20;100225.00;;;;347248;28;93888;-92
2022/03/14 00:34:00;;;;;;;;;;;6.70;99.90;7.20;100218.00;;;;347021;28;91743;-92
2022/03/14 00:34:14;;;;;;;;;;;6.70;99.90;7.30;100231.00;;;;345736;28;94576;-93
2022/03/14 00:34:27;;;;;;;;;;;6.70;99.90;7.30;100225.00;;;;347002;28;91883;-93
2022/03/14 00:34:39;;;;;;;;;;;6.80;99.90;7.30;100223.00;;;;346925;28;95232;-92
2022/03/14 00:34:51;;;;;;;;;;;6.80;99.90;7.30;100221.00;;;;347556;27;91279;-92
2022/03/14 00:35:03;;;;;;;;;;;6.80;99.90;7.20;100228.00;;;;348529;27;94715;-92
2022/03/14 00:35:16;;;;;;;;;;;6.70;99.90;7.20;100225.00;;;;345222;28;91880;-92
2022/03/14 00:35:28;;;;;;;;;;;6.70;99.90;7.10;100230.00;;;;348532;27;95825;-92
2022/03/14 00:35:40;;;;;;;;;;;6.70;99.90;7.10;100226.00;;;;345682;28;90410;-92
2022/03/14 00:35:55;;;;;;;;;;;6.70;99.90;7.10;100226.00;;;;347322;28;93760;-92
2022/03/14 00:36:08;;;;;;;;;;;6.70;99.90;7.20;100222.00;;;;346868;28;92045;-92
2022/03/14 00:36:20;;;;;;;;;;;6.80;99.90;7.30;100230.00;;;;344393;28;94574;-92
2022/03/14 00:36:32;;;;;;;;;;;6.80;99.90;7.30;100227.00;;;;344121;28;91919;-92
2022/03/14 00:36:43;;;;;;;;;;;6.80;99.90;7.30;100225.00;;;;344255;28;94798;-93
2022/03/14 00:36:55;;;;;;;;;;;6.70;99.90;7.30;100233.00;;;;345473;28;92108;-92
2022/03/14 00:37:07;;;;;;;;;;;6.80;99.90;7.30;100229.00;;;;344451;28;93405;-92
2022/03/14 00:37:19;;;;;;;;;;;6.80;99.90;7.30;100230.00;;;;344136;28;91188;-92
2022/03/14 00:37:31;;;;;;;;;;;6.80;99.90;7.20;100227.00;;;;344458;28;94559;-92
2022/03/14 00:37:43;;;;;;;;;;;6.80;99.90;7.20;100225.00;;;;345843;28;90488;-92
2022/03/14 00:37:55;;;;;;;;;;;6.70;99.90;7.30;100230.00;;;;345572;28;95024;-92
2022/03/14 00:38:07;;;;;;;;;;;6.80;99.90;7.30;100234.00;;;;345237;28;92038;-93
2022/03/14 00:38:20;;;;;;;;;;;6.70;99.90;7.30;100235.00;;;;347865;27;95547;-92
2022/03/14 00:38:34;;;;;;;;;;;6.80;99.90;7.30;100232.00;;;;348367;27;91960;-93
2022/03/14 00:38:46;;;;;;;;;;;6.80;99.90;7.30;100228.00;;;;347025;28;95523;-92
2022/03/14 00:38:57;;;;;;;;;;;6.80;99.90;7.30;100228.00;;;;346877;28;92036;-92
2022/03/14 00:39:09;;;;;;;;;;;6.80;99.90;7.30;100228.00;;;;344344;28;95548;-92
2022/03/14 00:39:21;;;;;;;;;;;6.70;99.90;7.30;100234.00;;;;345537;28;91177;-92
2022/03/14 00:39:33;;;;;;;;;;;6.70;99.90;7.30;100238.00;;;;344347;28;95779;-92
2022/03/14 00:39:47;;;;;;;;;;;6.70;99.90;7.30;100229.00;;;;345613;28;91211;-92
2022/03/14 00:39:59;;;;;;;;;;;6.70;99.90;7.40;100222.00;;;;345789;28;95312;-92
2022/03/14 00:40:11;;;;;;;;;;;6.80;99.90;7.40;100231.00;;;;344021;28;92087;-92
2022/03/14 00:40:23;;;;;;;;;;;6.80;99.90;7.30;100234.00;;;;345834;28;94516;-92
2022/03/14 00:40:37;;;;;;;;;;;6.80;99.90;7.30;100227.00;;;;343919;28;92076;-92
2022/03/14 00:40:50;;;;;;;;;;;6.80;99.90;7.20;100233.00;;;;346806;28;95685;-93
2022/03/14 00:41:02;;;;;;;;;;;6.80;99.90;7.20;100222.00;;;;345224;28;92101;-92
2022/03/14 00:41:16;;;;;;;;;;;6.70;99.90;7.10;100233.00;;;;345151;28;94385;-92
2022/03/14 00:41:27;;;;;;;;;;;6.70;99.90;7.10;100237.00;;;;344065;28;92104;-92
2022/03/14 00:41:39;;;;;;;;;;;6.80;99.90;7.20;100228.00;;;;347196;28;95532;-91
2022/03/14 00:41:51;;;;;;;;;;;6.70;99.90;7.20;100233.00;;;;343854;28;91340;-92
2022/03/14 00:42:03;;;;;;;;;;;6.70;99.90;7.30;100233.00;;;;347253;28;95123;-92
2022/03/14 00:42:15;;;;;;;;;;;6.70;99.90;7.20;100228.00;;;;345576;28;91121;-92
2022/03/14 00:42:27;;;;;;;;;;;6.70;99.90;7.20;100226.00;;;;346780;28;94717;-92
2022/03/14 00:42:39;;;;;;;;;;;6.70;99.90;7.20;100233.00;;;;348130;27;92095;-92
2022/03/14 00:42:51;;;;;;;;;;;6.70;99.90;7.20;100226.00;;;;346901;28;95041;-92
2022/03/14 00:43:03;;;;;;;;;;;6.70;99.90;7.20;100238.00;;;;343971;28;92059;-92
2022/03/14 00:43:15;;;;;;;;;;;6.80;99.90;7.20;100236.00;;;;345873;28;93053;-92
2022/03/14 00:43:28;;;;;;;;;;;6.70;99.90;7.20;100234.00;;;;345455;28;91239;-92
2022/03/14 00:43:40;;;;;;;;;;;6.80;99.90;7.20;100237.00;;;;346926;28;95828;-92
2022/03/14 00:43:52;;;;;;;;;;;6.70;99.90;7.20;100239.00;;;;347837;27;90539;-92
2022/03/14 00:44:04;;;;;;;;;;;6.70;99.90;7.20;100231.00;;;;344501;28;92659;-92
2022/03/14 00:44:17;;;;;;;;;;;6.80;99.90;7.20;100239.00;;;;344895;28;92154;-92
2022/03/14 00:44:31;;;;;;;;;;;6.70;99.90;7.10;100237.00;;;;345596;28;94808;-92
2022/03/14 00:44:43;;;;;;;;;;;6.70;99.90;7.30;100231.00;;;;344401;28;91157;-92
2022/03/14 00:44:54;;;;;;;;;;;6.70;99.90;7.20;100234.00;;;;344405;28;94801;-92
2022/03/14 00:45:07;;;;;;;;;;;6.70;99.90;7.30;100236.00;;;;345267;28;91974;-91
2022/03/14 00:45:21;;;;;;;;;;;6.80;99.90;7.20;100245.00;;;;344398;28;95815;-92
2022/03/14 00:45:34;;;;;;;;;;;6.80;99.90;7.20;100236.00;;;;345383;28;92114;-92
2022/03/14 00:45:46;;;;;;;;;;;6.70;99.90;7.30;100243.00;;;;346977;28;95889;-92
2022/03/14 00:45:58;;;;;;;;;;;6.70;99.90;7.30;100247.00;;;;345350;28;91447;-92
2022/03/14 00:46:10;;;;;;;;;;;6.80;99.90;7.40;100239.00;;;;345605;28;92999;-92
2022/03/14 00:46:22;;;;;;;;;;;6.80;99.90;7.40;100239.00;;;;344266;28;91947;-92
2022/03/14 00:46:37;;;;;;;;;;;6.70;99.90;7.40;100241.00;;;;343050;28;94975;-92
2022/03/14 00:46:50;;;;;;;;;;;6.80;99.90;7.30;100248.00;;;;345292;28;92045;-92
2022/03/14 00:47:02;;;;;;;;;;;6.80;99.90;7.20;100243.00;;;;344324;28;95577;-92
2022/03/14 00:47:15;;;;;;;;;;;6.80;99.90;7.20;100246.00;;;;344075;28;91994;-92
2022/03/14 00:47:28;;;;;;;;;;;6.80;99.90;7.30;100250.00;;;;345717;28;94840;-91
2022/03/14 00:47:40;;;;;;;;;;;6.80;99.90;7.40;100247.00;;;;348327;27;91132;-92
2022/03/14 00:47:52;;;;;;;;;;;6.80;99.90;7.40;100243.00;;;;347091;28;95796;-92
2022/03/14 00:48:05;;;;;;;;;;;6.80;99.90;7.40;100251.00;;;;348259;27;90374;-92
2022/03/14 00:48:16;;;;;;;;;;;6.80;99.90;7.40;100242.00;;;;345873;28;94967;-92
2022/03/14 00:48:30;;;;;;;;;;;6.80;99.90;7.40;100248.00;;;;346880;28;92029;-92
2022/03/14 00:48:42;;;;;;;;;;;6.80;99.90;7.40;100248.00;;;;345862;28;94731;-92
2022/03/14 00:48:55;;;;;;;;;;;6.80;99.90;7.40;100246.00;;;;346883;28;92086;-92
2022/03/14 00:49:07;;;;;;;;;;;6.80;99.90;7.30;100245.00;;;;347065;28;93877;-92
2022/03/14 00:49:19;;;;;;;;;;;6.80;99.90;7.30;100250.00;;;;349714;27;92011;-92
2022/03/14 00:49:31;;;;;;;;;;;6.80;99.90;7.30;100253.00;;;;348250;27;95497;-92
2022/03/14 00:49:44;;;;;;;;;;;6.80;99.90;7.30;100254.00;;;;346733;28;91974;-92
2022/03/14 00:49:55;;;;;;;;;;;6.80;99.90;7.20;100250.00;;;;347077;28;94557;-92
2022/03/14 00:50:07;;;;;;;;;;;6.80;99.90;7.30;100249.00;;;;345450;28;91303;-92
2022/03/14 00:50:19;;;;;;;;;;;6.80;99.90;7.40;100251.00;;;;344432;28;95051;-92
2022/03/14 00:50:31;;;;;;;;;;;6.80;99.90;7.40;100257.00;;;;346619;28;92124;-92
2022/03/14 00:50:43;;;;;;;;;;;6.80;99.90;7.30;100248.00;;;;345903;28;95970;-92
2022/03/14 00:50:55;;;;;;;;;;;6.80;99.90;7.20;100254.00;;;;346934;28;91299;-92
2022/03/14 00:51:06;;;;;;;;;;;6.80;99.90;7.20;100248.00;;;;348540;27;96001;-93
2022/03/14 00:51:18;;;;;;;;;;;6.80;99.90;7.20;100254.00;;;;345610;28;91907;-92
2022/03/14 00:51:31;;;;;;;;;;;6.80;99.90;7.20;100244.00;;;;347055;28;94643;-92
2022/03/14 00:51:43;;;;;;;;;;;6.80;99.90;7.20;100252.00;;;;347085;28;91926;-92
2022/03/14 00:51:56;;;;;;;;;;;6.80;99.90;7.20;100252.00;;;;348324;27;95604;-92
2022/03/14 00:52:08;;;;;;;;;;;6.80;99.90;7.20;100252.00;;;;346821;28;91311;-92
2022/03/14 00:52:21;;;;;;;;;;;6.80;99.90;7.20;100254.00;;;;347234;28;94917;-92
2022/03/14 00:52:33;;;;;;;;;;;6.80;99.90;7.20;100250.00;;;;348285;27;92090;-92
2022/03/14 00:52:45;;;;;;;;;;;6.80;99.90;7.20;100259.00;;;;344749;28;94794;-91
2022/03/14 00:52:56;;;;;;;;;;;6.80;99.90;7.20;100253.00;;;;345842;28;92078;-92
2022/03/14 00:53:08;;;;;;;;;;;6.80;99.90;7.20;100249.00;;;;348508;27;95748;-92
2022/03/14 00:53:20;;;;;;;;;;;6.80;99.90;7.30;100257.00;;;;346999;28;91940;-92
2022/03/14 00:53:32;;;;;;;;;;;6.80;99.90;7.30;100256.00;;;;345647;28;94958;-92
2022/03/14 00:53:44;;;;;;;;;;;6.80;99.90;7.30;100259.00;;;;344486;28;92194;-92
2022/03/14 00:53:56;;;;;;;;;;;6.80;99.90;7.30;100248.00;;;;348535;27;96004;-92
2022/03/14 00:54:09;;;;;;;;;;;6.80;99.90;7.30;100249.00;;;;346753;28;91287;-92
2022/03/14 00:54:20;;;;;;;;;;;6.80;99.90;7.30;100254.00;;;;345769;28;94900;-92
2022/03/14 00:54:32;;;;;;;;;;;6.80;99.90;7.40;100257.00;;;;345472;28;92021;-92
2022/03/14 00:54:45;;;;;;;;;;;6.80;99.90;7.30;100249.00;;;;349947;27;94600;-92
2022/03/14 00:54:56;;;;;;;;;;;6.80;99.90;7.30;100259.00;;;;348261;27;92071;-92
2022/03/14 00:55:08;;;;;;;;;;;6.80;99.90;7.20;100257.00;;;;345788;28;95833;-91
2022/03/14 00:55:20;;;;;;;;;;;6.80;99.90;7.20;100251.00;;;;345539;28;92056;-92
2022/03/14 00:55:32;;;;;;;;;;;6.80;99.90;7.30;100256.00;;;;348262;27;94459;-92
2022/03/14 00:55:44;;;;;;;;;;;6.80;99.90;7.30;100263.00;;;;347819;27;92128;-92
2022/03/14 00:55:56;;;;;;;;;;;6.80;99.90;7.40;100257.00;;;;347450;27;94496;-92
2022/03/14 00:56:07;;;;;;;;;;;6.80;99.90;7.50;100262.00;;;;348250;27;91344;-92
2022/03/14 00:56:20;;;;;;;;;;;6.80;99.90;7.50;100250.00;;;;347263;28;94975;-92
2022/03/14 00:56:32;;;;;;;;;;;6.80;99.90;7.40;100252.00;;;;345549;28;91961;-92
2022/03/14 00:56:43;;;;;;;;;;;6.80;99.90;7.40;100262.00;;;;347445;27;94816;-92
2022/03/14 00:56:55;;;;;;;;;;;6.80;99.90;7.30;100254.00;;;;345475;28;91232;-92
2022/03/14 00:57:07;;;;;;;;;;;6.80;99.90;7.30;100256.00;;;;345801;28;95842;-92
2022/03/14 00:57:19;;;;;;;;;;;6.80;99.90;7.30;100255.00;;;;346691;28;91212;-92
2022/03/14 00:57:31;;;;;;;;;;;6.80;99.90;7.40;100259.00;;;;345731;28;95544;-92
2022/03/14 00:57:42;;;;;;;;;;;6.80;99.90;7.30;100260.00;;;;345539;28;91220;-92
2022/03/14 00:57:55;;;;;;;;;;;6.80;99.90;7.40;100247.00;;;;345773;28;95693;-92
2022/03/14 00:58:07;;;;;;;;;;;6.80;99.90;7.40;100262.00;;;;346992;28;91259;-92
2022/03/14 00:58:19;;;;;;;;;;;6.80;99.90;7.50;100258.00;;;;348668;27;94052;-92
2022/03/14 00:58:33;;;;;;;;;;;6.80;99.90;7.50;100256.00;;;;345547;28;91936;-92
2022/03/14 00:58:44;;;;;;;;;;;6.90;99.90;7.40;100258.00;;;;347036;28;94535;-92
2022/03/14 00:58:59;;;;;;;;;;;6.90;99.90;7.50;100251.00;;;;345395;28;92025;-92
2022/03/14 00:59:11;;;;;;;;;;;6.80;99.90;7.40;100257.00;;;;345567;28;95631;-92
2022/03/14 00:59:24;;;;;;;;;;;6.90;99.90;7.30;100259.00;;;;345500;28;91905;-92
2022/03/14 00:59:37;;;;;;;;;;;6.80;99.90;7.30;100258.00;;;;345689;28;94798;-92
2022/03/14 00:59:49;;;;;;;;;;;6.80;99.90;7.20;100259.00;;;;345401;28;92061;-92
2022/03/14 01:00:01;;;;;;;;;;;6.80;99.90;7.30;100264.00;;;;345779;28;94902;-92
2022/03/14 01:00:13;;;;;;;;;;;6.80;99.90;7.40;100259.00;;;;348053;27;91473;-92
2022/03/14 01:00:25;;;;;;;;;;;6.80;99.90;7.40;100258.00;;;;347277;28;95676;-92
2022/03/14 01:00:37;;;;;;;;;;;6.80;99.90;7.40;100254.00;;;;348281;27;91296;-92
2022/03/14 01:00:49;;;;;;;;;;;6.90;99.90;7.40;100258.00;;;;345734;28;95746;-91
2022/03/14 01:01:02;;;;;;;;;;;6.80;99.90;7.40;100265.00;;;;348026;27;92074;-92
2022/03/14 01:01:16;;;;;;;;;;;6.90;99.90;7.40;100265.00;;;;347074;28;95024;-92
2022/03/14 01:01:28;;;;;;;;;;;6.80;99.90;7.40;100255.00;;;;346929;28;91183;-92
2022/03/14 01:01:41;;;;;;;;;;;6.80;99.90;7.30;100262.00;;;;348150;27;96006;-92
2022/03/14 01:01:54;;;;;;;;;;;6.80;99.90;7.30;100260.00;;;;345388;28;91268;-92
2022/03/14 01:02:07;;;;;;;;;;;6.80;99.90;7.40;100259.00;;;;347122;28;94837;-92
2022/03/14 01:02:19;;;;;;;;;;;6.80;99.90;7.40;100256.00;;;;348029;27;91390;-92
2022/03/14 01:02:31;;;;;;;;;;;6.90;99.90;7.50;100260.00;;;;348372;27;92768;-92
2022/03/14 01:02:43;;;;;;;;;;;6.90;99.90;7.40;100259.00;;;;346807;28;92005;-93
2022/03/14 01:02:55;;;;;;;;;;;6.90;99.90;7.40;100260.00;;;;348559;27;95678;-92
2022/03/14 01:03:07;;;;;;;;;;;6.90;99.90;7.30;100258.00;;;;346922;28;91181;-92
2022/03/14 01:03:19;;;;;;;;;;;6.90;99.90;7.30;100265.00;;;;347095;28;95872;-92
2022/03/14 01:03:31;;;;;;;;;;;6.90;99.90;7.30;100260.00;;;;346657;28;91269;-92
2022/03/14 01:03:43;;;;;;;;;;;6.80;99.90;7.30;100261.00;;;;347253;28;94882;-92
2022/03/14 01:03:55;;;;;;;;;;;6.80;99.90;7.30;100261.00;;;;346759;28;92155;-93